Terminal Aerodrome Forecast
Issued by NWS St Louis, MO

Home | Current Version | Previous Version | Text Only | Print | Product List | Glossary On
Versions: 1 2 3 4 5 6 7 8 9 10 11 12 13 14 15 16 17 18 19 20 21 22
000
FTUS43 KLSX 051041 AAC
TAFCOU
TAF AMD
KCOU 051041Z 0511/0606 VRB03KT 1SM BR VV002
      TEMPO 0511/0514 1/4SM FG VV001
     FM051600 VRB03KT 1SM BR BKN003
     FM051800 16006KT P6SM SCT250=

USA.gov is the U.S. government's official web portal to all federal, state and local government web resources and services.